EGQS

RAF Lossiemouth Airport

Lossiemouth, United Kingdom
METAR EGQS 171150Z 15006KT 9999 FEW025 BKN250 05/01 Q1008 BLU NOSIG
Observed Flight Rules
Dec-17 @ 11:50 UTC (18 minutes ago) Visual Flight Rules
Wind Visibility Clouds
150° at 6 knots 10,000+ meters
  • Few at 2,500' AGL
  • Broken at 25,000' AGL
Temperatures Readings
Current 5°C / 41°F
Dewpoint 1°C / 34°F
Humidity 76%
Altimeter 29.76" Hg
Pressure 1008 hPa
Elevation 13
METAR EGQS 171150Z 15006KT 9999 FEW025 BKN250 05/01 Q1008 BLU NOSIG
Observed Flight Rules
Dec-17 @ 11:50 UTC
(18 minutes ago)
VFR
Wind Visibility
150° at 6 knots 10,000+ meters
Clouds
  • Few at 2,500' AGL
  • Broken at 25,000' AGL
Temperature Dewpoint
5°C / 41°F 1°C / 34°F
Humidity Altimeter Pressure
76% 29.76" Hg 1008 hPa